createdAt,value
2022-11-09T00:01:15.700Z,99019.19
2022-11-09T00:04:03.828Z,99020.09
2022-11-09T00:06:49.575Z,99027.06
2022-11-09T00:09:34.850Z,99031.34
2022-11-09T00:12:20.207Z,99027.94
2022-11-09T00:15:06.048Z,99033.13
2022-11-09T00:17:51.423Z,99039.13
2022-11-09T00:20:36.755Z,99034.81
2022-11-09T00:23:23.267Z,99040.88
2022-11-09T00:26:11.348Z,99045.16
2022-11-09T00:28:57.094Z,99043.41
2022-11-09T00:31:43.326Z,99043.34
2022-11-09T00:34:28.935Z,99045.03
2022-11-09T00:37:14.503Z,99044.19
2022-11-09T00:40:00.799Z,99042.44
2022-11-09T00:42:46.244Z,99032.88
2022-11-09T00:45:34.762Z,99049.44
2022-11-09T00:48:19.943Z,99036.25
2022-11-09T00:51:06.059Z,99046.63
2022-11-09T00:53:54.766Z,99042.34
2022-11-09T00:56:40.822Z,99035.31
2022-11-09T00:59:26.617Z,99049.97
2022-11-09T01:02:11.948Z,99047.44
2022-11-09T01:04:57.479Z,99056.09
2022-11-09T01:07:44.452Z,99068.22
2022-11-09T01:10:29.955Z,99063.03
2022-11-09T01:13:17.889Z,99071.84
2022-11-09T01:16:13.064Z,99067.53
2022-11-09T01:18:59.075Z,99059.84
2022-11-09T01:21:44.373Z,99068.59
2022-11-09T01:24:29.794Z,99076.53
2022-11-09T01:27:15.629Z,99083.56
2022-11-09T01:30:01.164Z,99086.22
2022-11-09T01:32:46.765Z,99094.91
2022-11-09T01:35:38.039Z,99096.78
2022-11-09T01:38:23.548Z,99097.72
2022-11-09T01:41:15.894Z,99119.38
2022-11-09T01:44:13.919Z,99121.97
2022-11-09T01:47:19.852Z,99119.44
2022-11-09T01:50:05.778Z,99116.84
2022-11-09T01:52:51.211Z,99127.28
2022-11-09T01:55:37.072Z,99135.06
2022-11-09T01:58:28.002Z,99138.59
2022-11-09T02:01:16.092Z,99136.00
2022-11-09T02:04:12.870Z,99141.28
2022-11-09T02:07:00.096Z,99149.09
2022-11-09T02:09:53.895Z,99148.38
2022-11-09T02:12:40.417Z,99151.78
2022-11-09T02:15:27.431Z,99148.31
2022-11-09T02:18:13.659Z,99150.13
2022-11-09T02:20:59.199Z,99150.13
2022-11-09T02:23:44.954Z,99161.38
2022-11-09T02:26:44.501Z,99161.41
2022-11-09T02:29:41.585Z,99171.81
2022-11-09T02:32:29.619Z,99168.31
2022-11-09T02:35:16.827Z,99178.75
2022-11-09T02:38:02.133Z,99183.97
2022-11-09T02:40:51.576Z,99194.38
2022-11-09T02:43:37.740Z,99197.03
2022-11-09T02:46:32.504Z,99205.69
2022-11-09T02:49:18.121Z,99210.22
2022-11-09T02:52:03.755Z,99209.56
2022-11-09T02:54:49.518Z,99213.06
2022-11-09T02:57:35.579Z,99232.13
2022-11-09T03:00:22.048Z,99233.03
2022-11-09T03:03:07.886Z,99238.97
2022-11-09T03:05:53.172Z,99247.50
2022-11-09T03:08:38.975Z,99241.41
2022-11-09T03:11:24.317Z,99255.97
2022-11-09T03:14:10.589Z,99251.63
2022-11-09T03:16:58.303Z,99257.72
2022-11-09T03:19:45.409Z,99265.44
2022-11-09T03:22:31.800Z,99257.53
2022-11-09T03:25:17.533Z,99257.50
2022-11-09T03:28:07.347Z,99256.63
2022-11-09T03:30:53.678Z,99262.63
2022-11-09T03:33:39.017Z,99256.53
2022-11-09T03:36:24.808Z,99260.88
2022-11-09T03:39:10.803Z,99264.41
2022-11-09T03:41:56.418Z,99257.47
2022-11-09T03:44:44.119Z,99261.88
2022-11-09T03:47:29.460Z,99272.25
2022-11-09T03:50:16.790Z,99269.66
2022-11-09T03:53:02.323Z,99274.03
2022-11-09T03:55:47.693Z,99273.25
2022-11-09T03:58:33.077Z,99281.00
2022-11-09T04:01:18.560Z,99277.59
2022-11-09T04:04:03.874Z,99291.38
2022-11-09T04:06:49.263Z,99273.31
2022-11-09T04:09:35.088Z,99282.03
2022-11-09T04:12:20.578Z,99282.97
2022-11-09T04:15:06.504Z,99288.25
2022-11-09T04:17:59.037Z,99298.66
2022-11-09T04:20:44.760Z,99309.13
2022-11-09T04:23:30.334Z,99307.41
2022-11-09T04:26:15.614Z,99316.13
2022-11-09T04:29:01.051Z,99333.38
2022-11-09T04:31:48.670Z,99335.91
2022-11-09T04:34:34.467Z,99343.66
2022-11-09T04:37:19.968Z,99337.56
2022-11-09T04:40:06.198Z,99346.28
2022-11-09T04:42:52.235Z,99354.03
2022-11-09T04:45:37.820Z,99352.31
2022-11-09T04:48:23.321Z,99358.31
2022-11-09T04:51:10.675Z,99357.41
2022-11-09T04:53:56.613Z,99356.47
2022-11-09T04:56:42.349Z,99358.16
2022-11-09T04:59:27.794Z,99352.91
2022-11-09T05:02:13.183Z,99351.16
2022-11-09T05:04:58.672Z,99361.50
2022-11-09T05:07:43.951Z,99353.66
2022-11-09T05:10:29.762Z,99357.91
2022-11-09T05:13:15.683Z,99348.34
2022-11-09T05:16:01.469Z,99333.72
2022-11-09T05:18:47.525Z,99337.16
2022-11-09T05:21:33.145Z,99337.97
2022-11-09T05:24:18.654Z,99334.47
2022-11-09T05:27:05.189Z,99331.81
2022-11-09T05:29:50.595Z,99334.44
2022-11-09T05:32:39.253Z,99340.56
2022-11-09T05:35:24.911Z,99350.16
2022-11-09T05:38:10.166Z,99359.69
2022-11-09T05:40:55.574Z,99363.19
2022-11-09T05:43:40.982Z,99360.63
2022-11-09T05:46:27.113Z,99365.84
2022-11-09T05:49:12.664Z,99358.94
2022-11-09T05:51:57.985Z,99378.84
2022-11-09T05:54:43.436Z,99391.00
2022-11-09T05:57:29.448Z,99390.13
2022-11-09T06:00:15.751Z,99397.00
2022-11-09T06:03:11.622Z,99411.72
2022-11-09T06:06:06.796Z,99416.03
2022-11-09T06:08:53.422Z,99426.47
2022-11-09T06:11:38.862Z,99424.72
2022-11-09T06:14:24.191Z,99428.19
2022-11-09T06:17:09.493Z,99435.91
2022-11-09T06:19:54.845Z,99434.25
2022-11-09T06:22:40.169Z,99445.50
2022-11-09T06:25:26.168Z,99446.34
2022-11-09T06:28:11.692Z,99442.88
2022-11-09T06:30:59.076Z,99455.91
2022-11-09T06:33:44.262Z,99458.47
2022-11-09T06:36:29.970Z,99456.72
2022-11-09T06:39:15.578Z,99461.03
2022-11-09T06:42:01.250Z,99449.72
2022-11-09T06:44:46.621Z,99468.72
2022-11-09T06:47:32.006Z,99472.16
2022-11-09T06:50:17.270Z,99463.41
2022-11-09T06:53:06.547Z,99464.25
2022-11-09T06:55:52.206Z,99471.97
2022-11-09T06:58:37.978Z,99473.66
2022-11-09T07:01:27.830Z,99477.94
2022-11-09T07:04:14.816Z,99486.63
2022-11-09T07:07:00.451Z,99490.97
2022-11-09T07:09:45.953Z,99500.59
2022-11-09T07:12:33.276Z,99507.63
2022-11-09T07:15:18.971Z,99516.28
2022-11-09T07:18:07.149Z,99531.91
2022-11-09T07:20:53.114Z,99529.25
2022-11-09T07:23:38.697Z,99537.88
2022-11-09T07:26:24.082Z,99541.34
2022-11-09T07:29:09.527Z,99543.03
2022-11-09T07:31:55.856Z,99542.16
2022-11-09T07:34:41.627Z,99553.41
2022-11-09T07:37:27.044Z,99564.69
2022-11-09T07:40:13.304Z,99571.59
2022-11-09T07:43:03.329Z,99573.28
2022-11-09T07:45:49.131Z,99568.91
2022-11-09T07:48:34.716Z,99578.47
2022-11-09T07:51:20.088Z,99589.72
2022-11-09T07:54:05.252Z,99593.97
2022-11-09T07:56:50.602Z,99606.84
2022-11-09T07:59:35.979Z,99599.03
2022-11-09T08:02:21.770Z,99609.44
2022-11-09T08:05:07.702Z,99612.06
2022-11-09T08:08:00.689Z,99621.53
2022-11-09T08:10:51.503Z,99618.09
2022-11-09T08:13:37.172Z,99617.25
2022-11-09T08:16:22.793Z,99630.25
2022-11-09T08:19:10.437Z,99630.31
2022-11-09T08:21:57.960Z,99651.97
2022-11-09T08:24:43.471Z,99645.94
2022-11-09T08:27:30.825Z,99667.56
2022-11-09T08:30:20.255Z,99683.13
2022-11-09T08:33:06.256Z,99703.84
2022-11-09T08:35:53.359Z,99742.66
2022-11-09T08:38:39.603Z,99759.88
2022-11-09T08:41:24.910Z,99773.81
2022-11-09T08:44:10.290Z,99781.72
2022-11-09T08:46:55.757Z,99787.00
2022-11-09T08:49:41.140Z,99793.13
2022-11-09T08:52:26.291Z,99791.44
2022-11-09T08:55:11.749Z,99798.38
2022-11-09T08:57:59.516Z,99801.84
2022-11-09T09:00:45.041Z,99802.69
2022-11-09T09:03:30.394Z,99802.69
2022-11-09T09:06:15.848Z,99821.72
2022-11-09T09:09:01.598Z,99819.13
2022-11-09T09:11:47.155Z,99817.41
2022-11-09T09:14:33.238Z,99816.50
2022-11-09T09:17:18.690Z,99833.00
2022-11-09T09:20:05.759Z,99839.88
2022-11-09T09:22:51.066Z,99843.38
2022-11-09T09:25:36.482Z,99841.63
2022-11-09T09:28:22.153Z,99831.28
2022-11-09T09:31:08.219Z,99837.34
2022-11-09T09:33:53.629Z,99851.19
2022-11-09T09:36:43.405Z,99848.66
2022-11-09T09:39:33.051Z,99860.75
2022-11-09T09:42:28.356Z,99876.31
2022-11-09T09:45:22.655Z,99891.88
2022-11-09T09:48:30.017Z,99900.53
2022-11-09T09:51:29.580Z,99886.66
2022-11-09T09:54:30.395Z,99884.94
2022-11-09T09:57:22.490Z,99887.50
2022-11-09T10:00:15.937Z,99880.56
2022-11-09T10:03:02.237Z,99890.94
2022-11-09T10:05:57.067Z,99892.66
2022-11-09T10:08:58.299Z,99900.41
2022-11-09T10:11:55.323Z,99911.66
2022-11-09T10:15:07.042Z,99924.63
2022-11-09T10:17:58.740Z,99928.06
2022-11-09T10:21:00.985Z,99930.66
2022-11-09T10:24:07.747Z,99936.66
2022-11-09T10:26:56.894Z,99947.03
2022-11-09T10:29:47.768Z,99948.75
2022-11-09T10:32:33.347Z,99953.06
2022-11-09T10:35:22.436Z,99951.25
2022-11-09T10:38:14.077Z,99965.97
2022-11-09T10:41:04.679Z,99961.59
2022-11-09T10:44:17.495Z,99965.03
2022-11-09T10:47:22.999Z,99969.31
2022-11-09T10:50:35.708Z,99967.59
2022-11-09T10:53:39.906Z,99964.97
2022-11-09T10:57:05.707Z,99973.59
2022-11-09T11:00:16.693Z,99977.00
2022-11-09T11:03:24.886Z,99974.38
2022-11-09T11:06:31.739Z,99978.63
2022-11-09T11:09:36.709Z,99984.69
2022-11-09T11:12:51.294Z,99985.44
2022-11-09T11:15:55.925Z,99984.50
2022-11-09T11:19:00.519Z,99987.09
2022-11-09T11:22:20.528Z,99974.84
2022-11-09T11:25:25.212Z,99976.50
2022-11-09T11:28:41.426Z,99992.03
2022-11-09T11:31:45.666Z,99991.03
2022-11-09T11:35:05.751Z,100002.25
2022-11-09T11:38:22.481Z,99994.34
2022-11-09T11:42:01.770Z,99990.75
2022-11-09T11:45:41.445Z,99990.66
2022-11-09T11:48:58.963Z,99994.91
2022-11-09T11:52:34.519Z,100000.88
2022-11-09T11:56:04.743Z,99998.09
2022-11-09T11:59:48.239Z,99997.16
2022-11-09T12:03:11.129Z,100000.53
2022-11-09T12:06:33.010Z,99994.31
2022-11-09T12:09:57.318Z,99998.47
2022-11-09T12:13:27.515Z,99989.25
2022-11-09T12:16:55.169Z,99992.44
2022-11-09T12:20:24.283Z,99987.84
2022-11-09T12:24:07.363Z,99992.88
2022-11-09T12:27:32.957Z,99994.53
2022-11-09T12:30:40.777Z,99995.19
2022-11-09T12:34:00.302Z,100000.94
2022-11-09T12:37:12.970Z,100011.00
2022-11-09T12:40:39.298Z,100002.88
2022-11-09T12:44:25.043Z,100000.78
2022-11-09T12:47:35.352Z,100007.56
2022-11-09T12:50:40.441Z,100014.56
2022-11-09T12:53:45.159Z,99994.03
2022-11-09T12:56:58.235Z,100008.16
2022-11-09T13:00:02.775Z,100010.59
2022-11-09T13:03:19.098Z,100022.13
2022-11-09T13:06:26.800Z,100013.47
2022-11-09T13:09:43.858Z,100006.50
2022-11-09T13:12:49.296Z,100023.44
2022-11-09T13:16:09.492Z,100023.63
2022-11-09T13:19:33.898Z,100013.63
2022-11-09T13:22:38.710Z,100009.00
2022-11-09T13:25:44.349Z,100013.31
2022-11-09T13:29:07.537Z,100010.91
2022-11-09T13:32:11.837Z,100014.53
2022-11-09T13:35:45.336Z,100021.34
2022-11-09T13:39:29.638Z,100018.81
2022-11-09T13:42:36.133Z,100023.06
2022-11-09T13:45:48.609Z,100016.13
2022-11-09T13:48:54.300Z,100012.56
2022-11-09T13:51:58.415Z,100015.31
2022-11-09T13:55:03.350Z,100019.59
2022-11-09T13:58:21.210Z,100026.41
2022-11-09T14:01:45.848Z,100017.75
2022-11-09T14:04:50.106Z,100012.88
2022-11-09T14:07:56.072Z,100033.91
2022-11-09T14:11:13.269Z,100027.97
2022-11-09T14:14:58.685Z,100038.38
2022-11-09T14:18:12.608Z,100044.63
2022-11-09T14:21:52.341Z,100053.31
2022-11-09T14:24:56.538Z,100051.59
2022-11-09T14:28:01.073Z,100052.53
2022-11-09T14:31:05.306Z,100064.00
2022-11-09T14:34:16.670Z,100056.22
2022-11-09T14:37:21.568Z,100066.72
2022-11-09T14:40:33.055Z,100062.31
2022-11-09T14:43:44.329Z,100064.78
2022-11-09T14:46:53.275Z,100079.41
2022-11-09T14:49:58.848Z,100088.72
2022-11-09T14:53:05.062Z,100091.91
2022-11-09T14:56:13.989Z,100087.38
2022-11-09T14:59:32.455Z,100101.31
2022-11-09T15:02:39.379Z,100108.44
2022-11-09T15:05:43.666Z,100100.72
2022-11-09T15:08:56.410Z,100113.09
2022-11-09T15:12:01.816Z,100109.00
2022-11-09T15:15:07.686Z,100127.34
2022-11-09T15:18:21.368Z,100129.25
2022-11-09T15:21:25.984Z,100136.25
2022-11-09T15:24:46.497Z,100137.25
2022-11-09T15:28:00.570Z,100137.41
2022-11-09T15:31:16.196Z,100137.47
2022-11-09T15:34:27.029Z,100153.16
2022-11-09T15:37:49.197Z,100145.31
2022-11-09T15:40:53.616Z,100138.44
2022-11-09T15:43:58.534Z,100128.03
2022-11-09T15:47:04.107Z,100138.53
2022-11-09T15:50:17.998Z,100139.53
2022-11-09T15:53:23.301Z,100136.09
2022-11-09T15:56:27.836Z,100150.13
2022-11-09T15:59:32.104Z,100144.94
2022-11-09T16:02:36.403Z,100152.78
2022-11-09T16:05:40.801Z,100152.88
2022-11-09T16:08:49.382Z,100154.66
2022-11-09T16:11:54.259Z,100161.63
2022-11-09T16:14:58.890Z,100169.50
2022-11-09T16:18:04.356Z,100165.19
2022-11-09T16:21:10.387Z,100177.41
2022-11-09T16:24:16.772Z,100185.25
2022-11-09T16:27:48.514Z,100184.41
2022-11-09T16:30:47.043Z,100182.66
2022-11-09T16:33:51.295Z,100182.72
2022-11-09T16:36:57.119Z,100182.72
2022-11-09T16:40:05.808Z,100186.16
2022-11-09T16:43:10.322Z,100181.78
2022-11-09T16:46:22.265Z,100179.13
2022-11-09T16:49:26.624Z,100176.53
2022-11-09T16:52:31.350Z,100192.22
2022-11-09T16:55:35.770Z,100188.94
2022-11-09T16:58:39.945Z,100197.66
2022-11-09T17:01:53.700Z,100202.03
2022-11-09T17:04:57.996Z,100199.50
2022-11-09T17:08:01.859Z,100194.38
2022-11-09T17:11:14.929Z,100186.63
2022-11-09T17:14:19.328Z,100180.59
2022-11-09T17:17:23.663Z,100182.38
2022-11-09T17:20:28.026Z,100187.56
2022-11-09T17:23:33.913Z,100179.75
2022-11-09T17:26:38.013Z,100170.19
2022-11-09T17:29:42.323Z,100175.44
2022-11-09T17:32:48.136Z,100182.47
2022-11-09T17:36:04.427Z,100185.13
2022-11-09T17:39:08.761Z,100188.59
2022-11-09T17:42:12.912Z,100192.09
2022-11-09T17:45:17.115Z,100205.94
2022-11-09T17:48:21.808Z,100202.38
2022-11-09T17:51:26.667Z,100204.88
2022-11-09T17:54:36.445Z,100197.00
2022-11-09T17:57:41.389Z,100191.75
2022-11-09T18:00:46.501Z,100196.97
2022-11-09T18:03:50.668Z,100188.25
2022-11-09T18:06:55.006Z,100182.13
2022-11-09T18:09:59.058Z,100191.66
2022-11-09T18:13:04.221Z,100208.16
2022-11-09T18:16:17.137Z,100203.81
2022-11-09T18:19:21.892Z,100208.16
2022-11-09T18:22:25.988Z,100215.97
2022-11-09T18:25:31.326Z,100203.81
2022-11-09T18:28:36.509Z,100204.63
2022-11-09T18:31:42.267Z,100188.94
2022-11-09T18:34:46.371Z,100192.44
2022-11-09T18:37:50.502Z,100188.00
2022-11-09T18:41:03.825Z,100193.16
2022-11-09T18:44:09.582Z,100202.66
2022-11-09T18:47:15.187Z,100194.78
2022-11-09T18:50:19.829Z,100203.41
2022-11-09T18:53:28.284Z,100203.34
2022-11-09T18:56:32.584Z,100207.66
2022-11-09T18:59:40.108Z,100204.19
2022-11-09T19:02:44.159Z,100216.38
2022-11-09T19:05:48.550Z,100210.25
2022-11-09T19:09:11.043Z,100215.47
2022-11-09T19:12:15.838Z,100205.00
2022-11-09T19:15:20.365Z,100197.13
2022-11-09T19:18:24.565Z,100195.34
2022-11-09T19:22:01.546Z,100204.94
2022-11-09T19:25:06.478Z,100190.06
2022-11-09T19:28:10.715Z,100200.53
2022-11-09T19:31:17.785Z,100191.97
2022-11-09T19:34:22.590Z,100219.91
2022-11-09T19:37:27.020Z,100221.63
2022-11-09T19:40:36.899Z,100233.81
2022-11-09T19:43:43.991Z,100234.69
2022-11-09T19:46:48.482Z,100230.38
2022-11-09T19:49:53.253Z,100224.28
2022-11-09T19:52:57.369Z,100226.88
2022-11-09T19:56:04.687Z,100234.78
2022-11-09T19:59:13.418Z,100236.50
2022-11-09T20:02:17.907Z,100253.91
2022-11-09T20:05:22.267Z,100249.56
2022-11-09T20:08:26.373Z,100253.84
2022-11-09T20:11:49.169Z,100252.91
2022-11-09T20:14:53.778Z,100270.25
2022-11-09T20:17:58.228Z,100269.25
2022-11-09T20:21:03.927Z,100266.63
2022-11-09T20:24:08.894Z,100278.81
2022-11-09T20:27:13.065Z,100282.25
2022-11-09T20:30:17.714Z,100290.00
2022-11-09T20:33:22.116Z,100274.31
2022-11-09T20:36:26.750Z,100279.56
2022-11-09T20:39:31.177Z,100276.13
2022-11-09T20:42:36.265Z,100281.41
2022-11-09T20:45:41.087Z,100290.13
2022-11-09T20:48:55.020Z,100295.34
2022-11-09T20:51:59.981Z,100291.88
2022-11-09T20:55:04.570Z,100295.41
2022-11-09T20:58:14.053Z,100295.44
2022-11-09T21:01:21.437Z,100298.91
2022-11-09T21:04:26.048Z,100310.28
2022-11-09T21:07:30.195Z,100308.50
2022-11-09T21:10:35.540Z,100301.44
2022-11-09T21:13:44.235Z,100301.44
2022-11-09T21:16:48.636Z,100287.53
2022-11-09T21:19:53.067Z,100300.59
2022-11-09T21:23:12.358Z,100301.38
2022-11-09T21:26:46.127Z,100297.00
2022-11-09T21:29:50.522Z,100298.72
2022-11-09T21:32:55.070Z,100291.72
2022-11-09T21:36:05.612Z,100296.94
2022-11-09T21:39:10.943Z,100295.28
2022-11-09T21:42:15.134Z,100289.22
2022-11-09T21:45:19.757Z,100287.47
2022-11-09T21:48:23.936Z,100287.47
2022-11-09T21:51:28.471Z,100296.22
2022-11-09T21:54:33.016Z,100303.16
2022-11-09T21:57:37.220Z,100303.28
2022-11-09T22:00:41.337Z,100314.50
2022-11-09T22:03:46.167Z,100307.47
2022-11-09T22:06:50.587Z,100300.41
2022-11-09T22:10:11.343Z,100303.09
2022-11-09T22:13:34.985Z,100301.38
2022-11-09T22:16:39.347Z,100304.88
2022-11-09T22:20:02.708Z,100315.31
2022-11-09T22:23:07.994Z,100312.72
2022-11-09T22:26:12.308Z,100310.09
2022-11-09T22:29:17.110Z,100317.09
2022-11-09T22:32:22.044Z,100316.19
2022-11-09T22:35:26.108Z,100325.69
2022-11-09T22:38:34.726Z,100322.09
2022-11-09T22:41:39.728Z,100320.22
2022-11-09T22:44:43.656Z,100327.16
2022-11-09T22:47:47.814Z,100333.97
2022-11-09T22:50:51.947Z,100332.13
2022-11-09T22:53:56.222Z,100317.25
2022-11-09T22:57:00.345Z,100319.75
2022-11-09T23:00:04.990Z,100316.19
2022-11-09T23:03:09.203Z,100319.47
2022-11-09T23:06:16.232Z,100315.84
2022-11-09T23:09:20.791Z,100327.22
2022-11-09T23:12:24.983Z,100309.97
2022-11-09T23:15:29.826Z,100305.72
2022-11-09T23:18:52.927Z,100316.38
2022-11-09T23:21:57.352Z,100314.63
2022-11-09T23:25:20.170Z,100332.94
2022-11-09T23:28:25.206Z,100330.25
2022-11-09T23:31:29.632Z,100323.16
2022-11-09T23:34:34.103Z,100330.03
2022-11-09T23:37:38.308Z,100317.69
2022-11-09T23:40:42.198Z,100314.09
2022-11-09T23:43:49.624Z,100314.91
2022-11-09T23:46:54.492Z,100327.97
2022-11-09T23:49:58.932Z,100303.50
2022-11-09T23:53:03.105Z,100309.50
2022-11-09T23:56:09.853Z,100313.84
2022-11-09T23:59:13.839Z,100323.38
